createdAt,value
2019-04-29T00:00:53.743Z,90.80
2019-04-29T00:03:23.432Z,90.80
2019-04-29T00:05:53.106Z,90.70
2019-04-29T00:08:23.080Z,90.50
2019-04-29T00:10:52.355Z,90.50
2019-04-29T00:13:21.643Z,90.60
2019-04-29T00:16:25.241Z,90.60
2019-04-29T00:19:26.145Z,90.60
2019-04-29T00:21:55.625Z,90.60
2019-04-29T00:24:24.976Z,90.60
2019-04-29T00:26:54.319Z,90.60
2019-04-29T00:29:23.955Z,90.60
2019-04-29T00:31:53.668Z,90.60
2019-04-29T00:34:22.955Z,90.60
2019-04-29T00:37:02.472Z,90.50
2019-04-29T00:39:50.444Z,90.60
2019-04-29T00:42:35.062Z,90.90
2019-04-29T00:45:05.249Z,90.80
2019-04-29T00:47:34.776Z,90.80
2019-04-29T00:50:04.117Z,90.70
2019-04-29T00:52:33.743Z,90.70
2019-04-29T00:55:08.699Z,90.70
2019-04-29T00:57:38.274Z,90.80
2019-04-29T01:00:08.867Z,90.80
2019-04-29T01:02:38.783Z,90.80
2019-04-29T01:05:08.072Z,90.90
2019-04-29T01:07:37.617Z,90.90
2019-04-29T01:10:07.271Z,90.90
2019-04-29T01:12:37.474Z,90.90
2019-04-29T01:15:06.792Z,90.90
2019-04-29T01:17:36.079Z,90.90
2019-04-29T01:20:05.627Z,91.00
2019-04-29T01:22:35.286Z,91.00
2019-04-29T01:25:05.306Z,90.90
2019-04-29T01:27:40.559Z,90.90
2019-04-29T01:30:11.507Z,90.90
2019-04-29T01:32:41.136Z,90.90
2019-04-29T01:35:10.452Z,90.90
2019-04-29T01:37:41.937Z,90.90
2019-04-29T01:40:33.548Z,90.90
2019-04-29T01:43:03.324Z,91.00
2019-04-29T01:45:32.578Z,90.90
2019-04-29T01:48:02.454Z,90.90
2019-04-29T01:50:32.062Z,90.90
2019-04-29T01:53:01.588Z,91.30
2019-04-29T01:55:31.588Z,91.00
2019-04-29T01:58:00.874Z,91.20
2019-04-29T02:00:30.516Z,90.90
2019-04-29T02:02:59.833Z,91.00
2019-04-29T02:05:29.094Z,90.90
2019-04-29T02:07:58.514Z,90.90
2019-04-29T02:10:33.026Z,90.90
2019-04-29T02:13:02.287Z,90.90
2019-04-29T02:15:31.620Z,90.80
2019-04-29T02:18:01.176Z,90.90
2019-04-29T02:20:30.715Z,91.00
2019-04-29T02:23:19.226Z,90.90
2019-04-29T02:25:48.823Z,91.00
2019-04-29T02:28:18.140Z,90.90
2019-04-29T02:30:49.036Z,91.00
2019-04-29T02:33:18.370Z,91.10
2019-04-29T02:35:47.959Z,91.20
2019-04-29T02:38:28.283Z,91.10
2019-04-29T02:41:19.445Z,91.20
2019-04-29T02:43:50.349Z,91.20
2019-04-29T02:46:19.641Z,91.20
2019-04-29T02:48:48.997Z,91.40
2019-04-29T02:51:37.292Z,91.40
2019-04-29T02:54:06.628Z,91.40
2019-04-29T02:56:36.048Z,91.40
2019-04-29T02:59:06.334Z,91.40
2019-04-29T03:01:46.378Z,91.30
2019-04-29T03:04:21.356Z,91.40
2019-04-29T03:06:50.710Z,91.50
2019-04-29T03:09:20.322Z,91.50
2019-04-29T03:11:49.652Z,91.90
2019-04-29T03:14:18.955Z,91.50
2019-04-29T03:16:48.289Z,91.30
2019-04-29T03:19:22.772Z,91.40
2019-04-29T03:21:57.171Z,91.50
2019-04-29T03:24:26.710Z,91.70
2019-04-29T03:26:56.298Z,91.60
2019-04-29T03:29:25.983Z,91.60
2019-04-29T03:31:56.422Z,91.50
2019-04-29T03:34:27.278Z,91.40
2019-04-29T03:36:56.647Z,91.30
2019-04-29T03:39:26.227Z,91.20
2019-04-29T03:41:55.613Z,91.20
2019-04-29T03:44:24.948Z,91.10
2019-04-29T03:46:54.273Z,91.00
2019-04-29T03:49:23.604Z,91.10
2019-04-29T03:51:53.109Z,91.10
2019-04-29T03:54:22.523Z,91.10
2019-04-29T03:56:51.808Z,91.10
2019-04-29T03:59:21.479Z,91.30
2019-04-29T04:02:16.768Z,91.40
2019-04-29T04:05:08.853Z,91.60
2019-04-29T04:07:43.895Z,91.60
2019-04-29T04:10:13.527Z,91.60
2019-04-29T04:12:42.893Z,91.70
2019-04-29T04:15:13.295Z,91.80
2019-04-29T04:17:58.513Z,91.90
2019-04-29T04:20:28.012Z,91.80
2019-04-29T04:22:57.416Z,91.60
2019-04-29T04:25:26.793Z,91.60
2019-04-29T04:27:56.312Z,91.60
2019-04-29T04:30:25.622Z,91.60
2019-04-29T04:32:55.141Z,91.70
2019-04-29T04:35:24.426Z,91.70
2019-04-29T04:37:53.697Z,91.40
2019-04-29T04:40:28.945Z,91.30
2019-04-29T04:42:58.708Z,91.10
2019-04-29T04:45:28.004Z,90.90
2019-04-29T04:47:57.653Z,91.00
2019-04-29T04:50:26.898Z,90.90
2019-04-29T04:52:56.323Z,91.20
2019-04-29T04:55:28.402Z,91.10
2019-04-29T04:57:57.732Z,91.10
2019-04-29T05:00:28.555Z,91.10
2019-04-29T05:02:57.855Z,91.00
2019-04-29T05:05:27.156Z,90.90
2019-04-29T05:07:56.842Z,91.10
2019-04-29T05:10:26.136Z,91.10
2019-04-29T05:12:56.115Z,91.30
2019-04-29T05:15:25.651Z,91.20
2019-04-29T05:17:55.266Z,91.20
2019-04-29T05:20:24.881Z,91.10
2019-04-29T05:23:00.269Z,91.00
2019-04-29T05:25:30.870Z,90.90
2019-04-29T05:28:00.725Z,90.80
2019-04-29T05:30:30.031Z,90.80
2019-04-29T05:32:59.861Z,90.70
2019-04-29T05:35:40.245Z,90.50
2019-04-29T05:38:46.558Z,90.20
2019-04-29T05:41:16.155Z,90.20
2019-04-29T05:44:05.258Z,90.20
2019-04-29T05:46:39.474Z,90.30
2019-04-29T05:49:10.870Z,90.10
2019-04-29T05:52:01.968Z,90.20
2019-04-29T05:54:31.615Z,90.00
2019-04-29T05:57:00.268Z,89.80
2019-04-29T05:59:29.879Z,90.00
2019-04-29T06:01:59.167Z,90.00
2019-04-29T06:04:28.850Z,89.40
2019-04-29T06:06:58.271Z,88.60
2019-04-29T06:09:27.536Z,88.60
2019-04-29T06:11:57.088Z,88.10
2019-04-29T06:14:26.428Z,87.00
2019-04-29T06:16:57.459Z,87.00
2019-04-29T06:19:27.049Z,86.70
2019-04-29T06:21:56.336Z,86.70
2019-04-29T06:24:25.868Z,86.70
2019-04-29T06:26:55.755Z,86.90
2019-04-29T06:29:25.123Z,86.90
2019-04-29T06:31:54.443Z,86.70
2019-04-29T06:34:23.988Z,86.60
2019-04-29T06:36:53.257Z,85.90
2019-04-29T06:39:22.551Z,85.50
2019-04-29T06:41:51.872Z,85.20
2019-04-29T06:44:21.144Z,85.00
2019-04-29T06:46:54.628Z,84.70
2019-04-29T06:49:21.974Z,84.20
2019-04-29T06:51:51.871Z,83.90
2019-04-29T06:54:21.148Z,83.50
2019-04-29T06:56:50.692Z,83.90
2019-04-29T06:59:20.243Z,84.10
2019-04-29T07:01:49.779Z,83.60
2019-04-29T07:04:19.669Z,83.60
2019-04-29T07:06:57.139Z,83.30
2019-04-29T07:09:20.008Z,83.30
2019-04-29T07:11:49.597Z,82.70
2019-04-29T07:14:18.903Z,82.10
2019-04-29T07:16:48.600Z,81.90
2019-04-29T07:19:17.911Z,81.40
2019-04-29T07:21:49.914Z,81.40
2019-04-29T07:24:20.284Z,81.10
2019-04-29T07:26:49.467Z,80.70
2019-04-29T07:29:19.127Z,80.80
2019-04-29T07:31:48.792Z,80.90
2019-04-29T07:34:18.073Z,80.20
2019-04-29T07:36:47.358Z,80.60
2019-04-29T07:39:16.898Z,80.10
2019-04-29T07:41:49.571Z,80.20
2019-04-29T07:44:18.439Z,79.90
2019-04-29T07:46:59.286Z,79.50
2019-04-29T07:49:24.796Z,79.60
2019-04-29T07:51:54.392Z,79.10
2019-04-29T07:54:23.661Z,78.80
2019-04-29T07:56:52.927Z,78.80
2019-04-29T07:59:22.480Z,78.80
2019-04-29T08:01:55.675Z,78.50
2019-04-29T08:04:23.533Z,78.30
2019-04-29T08:06:53.748Z,77.70
2019-04-29T08:09:23.368Z,77.00
2019-04-29T08:11:53.351Z,76.90
2019-04-29T08:14:23.143Z,76.80
2019-04-29T08:16:52.491Z,75.00
2019-04-29T08:19:24.761Z,75.20
2019-04-29T08:21:52.800Z,75.40
2019-04-29T08:24:22.332Z,76.10
2019-04-29T08:26:51.890Z,74.10
2019-04-29T08:29:21.275Z,73.90
2019-04-29T08:31:51.763Z,73.30
2019-04-29T08:34:23.184Z,73.70
2019-04-29T08:36:52.914Z,74.10
2019-04-29T08:39:25.053Z,72.80
2019-04-29T08:41:53.307Z,72.90
2019-04-29T08:44:30.467Z,73.40
2019-04-29T08:47:07.313Z,73.10
2019-04-29T08:49:36.900Z,72.30
2019-04-29T08:52:06.425Z,71.70
2019-04-29T08:54:37.176Z,71.30
2019-04-29T08:57:06.888Z,71.20
2019-04-29T08:59:36.486Z,70.50
2019-04-29T09:02:10.174Z,69.30
2019-04-29T09:04:37.001Z,68.60
2019-04-29T09:07:12.831Z,68.70
2019-04-29T09:09:38.182Z,68.70
2019-04-29T09:12:07.715Z,68.30
2019-04-29T09:14:37.337Z,67.40
2019-04-29T09:17:19.833Z,67.90
2019-04-29T09:19:39.512Z,65.70
2019-04-29T09:22:10.872Z,62.70
2019-04-29T09:24:43.615Z,62.60
2019-04-29T09:27:17.140Z,62.50
2019-04-29T09:29:46.787Z,61.60
2019-04-29T09:32:16.073Z,60.30
2019-04-29T09:34:45.972Z,60.80
2019-04-29T09:37:18.608Z,59.60
2019-04-29T09:39:47.367Z,58.40
2019-04-29T09:42:56.901Z,58.20
2019-04-29T09:45:31.195Z,57.80
2019-04-29T09:48:00.748Z,57.50
2019-04-29T09:50:34.203Z,57.60
2019-04-29T09:53:01.989Z,56.80
2019-04-29T09:55:31.286Z,56.00
2019-04-29T09:58:00.972Z,56.10
2019-04-29T10:00:49.448Z,55.30
2019-04-29T10:03:36.396Z,55.40
2019-04-29T10:06:14.771Z,53.30
2019-04-29T10:08:44.072Z,53.70
2019-04-29T10:11:13.815Z,54.10
2019-04-29T10:13:43.412Z,54.30
2019-04-29T10:16:25.027Z,54.50
2019-04-29T10:19:05.224Z,54.70
2019-04-29T10:21:33.461Z,54.80
2019-04-29T10:24:02.846Z,53.90
2019-04-29T10:26:32.123Z,53.40
2019-04-29T10:29:06.198Z,54.20
2019-04-29T10:31:35.813Z,54.50
2019-04-29T10:34:06.536Z,54.60
2019-04-29T10:36:35.925Z,54.00
2019-04-29T10:39:36.908Z,53.30
2019-04-29T10:42:06.892Z,52.70
2019-04-29T10:44:57.915Z,51.70
2019-04-29T10:47:55.309Z,52.90
2019-04-29T10:50:30.907Z,51.20
2019-04-29T10:53:01.415Z,50.20
2019-04-29T10:55:31.804Z,50.10
2019-04-29T10:58:01.210Z,49.90
2019-04-29T11:01:36.931Z,49.40
2019-04-29T11:04:08.743Z,49.10
2019-04-29T11:06:37.385Z,48.80
2019-04-29T11:09:28.727Z,49.20
2019-04-29T11:11:58.010Z,49.10
2019-04-29T11:14:27.384Z,48.40
2019-04-29T11:16:57.040Z,48.20
2019-04-29T11:19:26.396Z,47.70
2019-04-29T11:21:55.856Z,48.50
2019-04-29T11:24:41.437Z,48.30
2019-04-29T11:27:18.357Z,48.00
2019-04-29T11:29:47.655Z,48.30
2019-04-29T11:32:24.917Z,47.90
2019-04-29T11:35:06.128Z,47.50
2019-04-29T11:37:36.034Z,49.00
2019-04-29T11:40:05.854Z,50.00
2019-04-29T11:42:36.432Z,50.00
2019-04-29T11:45:09.024Z,48.20
2019-04-29T11:47:38.658Z,47.30
2019-04-29T11:50:17.789Z,47.40
2019-04-29T11:52:47.292Z,46.60
2019-04-29T11:55:18.424Z,46.40
2019-04-29T11:57:58.723Z,46.40
2019-04-29T12:00:57.000Z,46.60
2019-04-29T12:03:30.747Z,48.60
2019-04-29T12:06:02.666Z,48.90
2019-04-29T12:08:32.873Z,48.10
2019-04-29T12:11:07.121Z,47.90
2019-04-29T12:13:46.131Z,47.10
2019-04-29T12:16:24.438Z,46.50
2019-04-29T12:18:58.551Z,46.60
2019-04-29T12:21:30.135Z,46.80
2019-04-29T12:24:01.755Z,47.00
2019-04-29T12:26:35.586Z,46.60
2019-04-29T12:29:02.336Z,47.10
2019-04-29T12:31:51.029Z,46.80
2019-04-29T12:34:32.550Z,45.40
2019-04-29T12:37:01.839Z,45.00
2019-04-29T12:39:56.082Z,45.10
2019-04-29T12:42:55.365Z,46.50
2019-04-29T12:45:30.381Z,47.20
2019-04-29T12:48:00.126Z,47.30
2019-04-29T12:50:29.422Z,47.60
2019-04-29T12:52:58.778Z,47.50
2019-04-29T12:55:44.308Z,46.10
2019-04-29T12:58:06.440Z,47.50
2019-04-29T13:00:47.290Z,46.90
2019-04-29T13:03:23.823Z,47.80
2019-04-29T13:06:14.857Z,48.00
2019-04-29T13:08:47.447Z,47.40
2019-04-29T13:11:19.234Z,44.20
2019-04-29T13:13:51.415Z,43.50
2019-04-29T13:16:55.786Z,44.50
2019-04-29T13:19:33.220Z,45.30
2019-04-29T13:22:02.832Z,45.30
2019-04-29T13:24:32.185Z,45.70
2019-04-29T13:27:15.217Z,46.10
2019-04-29T13:29:36.169Z,45.90
2019-04-29T13:32:07.884Z,45.80
2019-04-29T13:34:41.451Z,45.30
2019-04-29T13:37:18.814Z,45.40
2019-04-29T13:39:43.855Z,44.80
2019-04-29T13:42:15.805Z,45.00
2019-04-29T13:45:04.489Z,43.90
2019-04-29T13:47:33.027Z,44.40
2019-04-29T13:50:18.125Z,45.50
2019-04-29T13:52:38.716Z,46.20
2019-04-29T13:55:17.169Z,47.10
2019-04-29T13:57:39.378Z,47.30
2019-04-29T14:00:26.764Z,47.10
2019-04-29T14:03:00.068Z,46.80
2019-04-29T14:05:36.699Z,46.80
2019-04-29T14:08:04.095Z,46.90
2019-04-29T14:10:33.604Z,48.10
2019-04-29T14:13:10.487Z,47.50
2019-04-29T14:15:38.135Z,46.40
2019-04-29T14:18:06.945Z,46.80
2019-04-29T14:20:36.667Z,46.90
2019-04-29T14:23:06.543Z,47.00
2019-04-29T14:25:36.146Z,47.80
2019-04-29T14:28:05.757Z,47.50
2019-04-29T14:30:39.381Z,47.00
2019-04-29T14:33:09.736Z,44.90
2019-04-29T14:36:00.983Z,45.50
2019-04-29T14:38:30.779Z,45.80
2019-04-29T14:41:00.042Z,45.80
2019-04-29T14:43:57.279Z,46.20
2019-04-29T14:46:57.695Z,46.10
2019-04-29T14:49:30.690Z,46.30
2019-04-29T14:52:03.240Z,47.30
2019-04-29T14:54:31.683Z,47.30
2019-04-29T14:57:01.279Z,47.90
2019-04-29T14:59:30.591Z,48.20
2019-04-29T15:02:16.105Z,48.00
2019-04-29T15:04:43.755Z,48.50
2019-04-29T15:07:13.439Z,48.70
2019-04-29T15:09:58.503Z,48.50
2019-04-29T15:12:52.148Z,48.50
2019-04-29T15:15:36.377Z,47.70
2019-04-29T15:18:45.447Z,47.20
2019-04-29T15:21:05.741Z,47.20
2019-04-29T15:23:32.992Z,47.80
2019-04-29T15:26:02.351Z,48.20
2019-04-29T15:28:33.277Z,48.10
2019-04-29T15:31:02.832Z,48.20
2019-04-29T15:33:34.671Z,48.00
2019-04-29T15:36:03.213Z,48.20
2019-04-29T15:38:34.755Z,48.10
2019-04-29T15:41:05.757Z,48.20
2019-04-29T15:43:47.273Z,48.60
2019-04-29T15:46:10.744Z,48.90
2019-04-29T15:48:37.452Z,49.30
2019-04-29T15:51:09.232Z,49.50
2019-04-29T15:53:38.998Z,49.10
2019-04-29T15:56:27.181Z,49.00
2019-04-29T15:58:39.625Z,48.50
2019-04-29T16:01:14.514Z,48.10
2019-04-29T16:03:41.174Z,48.80
2019-04-29T16:06:21.406Z,49.00
2019-04-29T16:08:58.886Z,49.40
2019-04-29T16:11:51.688Z,49.90
2019-04-29T16:14:22.794Z,50.10
2019-04-29T16:16:52.204Z,49.60
2019-04-29T16:19:21.763Z,50.00
2019-04-29T16:21:51.303Z,49.80
2019-04-29T16:24:37.536Z,49.10
2019-04-29T16:26:53.743Z,49.60
2019-04-29T16:29:22.650Z,49.40
2019-04-29T16:31:54.906Z,49.60
2019-04-29T16:34:23.544Z,50.20
2019-04-29T16:36:52.801Z,50.80
2019-04-29T16:39:22.371Z,51.20
2019-04-29T16:42:07.999Z,51.50
2019-04-29T16:44:37.647Z,52.00
2019-04-29T16:47:13.061Z,52.50
2019-04-29T16:49:40.627Z,53.00
2019-04-29T16:52:09.885Z,53.20
2019-04-29T16:54:39.503Z,53.10
2019-04-29T16:57:09.073Z,53.30
2019-04-29T16:59:38.320Z,53.40
2019-04-29T17:02:08.362Z,53.40
2019-04-29T17:04:38.153Z,53.80
2019-04-29T17:07:13.035Z,53.20
2019-04-29T17:10:03.278Z,53.70
2019-04-29T17:12:46.291Z,54.20
2019-04-29T17:15:24.681Z,54.40
2019-04-29T17:17:47.139Z,54.70
2019-04-29T17:20:16.769Z,55.10
2019-04-29T17:22:46.327Z,55.30
2019-04-29T17:25:16.995Z,55.80
2019-04-29T17:28:12.076Z,55.90
2019-04-29T17:30:59.821Z,56.20
2019-04-29T17:33:36.610Z,56.60
2019-04-29T17:36:06.626Z,57.40
2019-04-29T17:38:36.293Z,58.30
2019-04-29T17:41:05.578Z,59.40
2019-04-29T17:43:57.069Z,60.00
2019-04-29T17:47:00.668Z,60.80
2019-04-29T17:49:42.462Z,62.10
2019-04-29T17:52:18.092Z,63.20
2019-04-29T17:54:49.619Z,64.90
2019-04-29T17:57:36.298Z,64.00
2019-04-29T18:00:44.223Z,64.30
2019-04-29T18:03:43.210Z,64.70
2019-04-29T18:06:24.729Z,65.20
2019-04-29T18:09:15.694Z,65.20
2019-04-29T18:11:51.525Z,65.80
2019-04-29T18:14:16.069Z,66.10
2019-04-29T18:16:47.799Z,66.50
2019-04-29T18:19:34.898Z,66.40
2019-04-29T18:22:20.635Z,66.80
2019-04-29T18:25:12.730Z,67.10
2019-04-29T18:27:42.939Z,67.50
2019-04-29T18:30:15.804Z,67.60
2019-04-29T18:32:46.696Z,67.80
2019-04-29T18:35:15.382Z,68.30
2019-04-29T18:37:45.708Z,68.20
2019-04-29T18:40:16.098Z,68.60
2019-04-29T18:42:48.447Z,68.70
2019-04-29T18:45:16.694Z,69.00
2019-04-29T18:47:45.989Z,69.30
2019-04-29T18:50:15.903Z,69.10
2019-04-29T18:52:45.994Z,69.30
2019-04-29T18:55:15.322Z,69.50
2019-04-29T18:57:44.653Z,69.60
2019-04-29T19:00:19.053Z,69.70
2019-04-29T19:02:52.301Z,69.60
2019-04-29T19:05:40.574Z,69.90
2019-04-29T19:08:14.279Z,70.00
2019-04-29T19:10:40.850Z,70.00
2019-04-29T19:13:16.534Z,70.10
2019-04-29T19:15:47.002Z,70.10
2019-04-29T19:18:17.526Z,70.50
2019-04-29T19:20:47.864Z,70.20
2019-04-29T19:23:21.767Z,70.50
2019-04-29T19:25:49.788Z,70.40
2019-04-29T19:28:29.560Z,70.10
2019-04-29T19:30:49.011Z,70.60
2019-04-29T19:33:18.693Z,70.50
2019-04-29T19:35:48.230Z,70.70
2019-04-29T19:38:17.550Z,70.90
2019-04-29T19:40:46.851Z,71.00
2019-04-29T19:43:18.875Z,71.00
2019-04-29T19:45:49.086Z,71.10
2019-04-29T19:48:22.554Z,71.40
2019-04-29T19:51:13.015Z,71.70
2019-04-29T19:53:21.280Z,71.80
2019-04-29T19:56:01.421Z,71.80
2019-04-29T19:58:28.605Z,71.90
2019-04-29T20:00:55.043Z,72.30
2019-04-29T20:03:35.046Z,72.40
2019-04-29T20:06:08.414Z,72.60
2019-04-29T20:08:48.299Z,72.80
2019-04-29T20:11:12.414Z,73.10
2019-04-29T20:13:34.654Z,73.20
2019-04-29T20:16:25.007Z,73.20
2019-04-29T20:19:12.198Z,73.40
2019-04-29T20:21:36.652Z,73.70
2019-04-29T20:24:09.652Z,74.00
2019-04-29T20:26:37.626Z,74.40
2019-04-29T20:29:07.389Z,74.70
2019-04-29T20:31:39.007Z,74.90
2019-04-29T20:34:08.486Z,75.70
2019-04-29T20:36:41.751Z,75.30
2019-04-29T20:39:15.143Z,75.40
2019-04-29T20:41:43.074Z,75.50
2019-04-29T20:44:11.388Z,75.80
2019-04-29T20:46:45.842Z,76.00
2019-04-29T20:49:12.223Z,76.10
2019-04-29T20:51:49.537Z,76.50
2019-04-29T20:54:19.440Z,76.60
2019-04-29T20:56:48.789Z,77.00
2019-04-29T20:59:18.220Z,77.30
2019-04-29T21:01:52.459Z,77.40
2019-04-29T21:04:31.032Z,77.70
2019-04-29T21:07:00.477Z,77.90
2019-04-29T21:09:27.488Z,78.00
2019-04-29T21:12:04.693Z,78.20
2019-04-29T21:14:56.925Z,78.40
2019-04-29T21:17:31.251Z,78.50
2019-04-29T21:19:56.801Z,78.80
2019-04-29T21:22:26.122Z,79.00
2019-04-29T21:24:57.522Z,79.10
2019-04-29T21:27:28.729Z,79.30
2019-04-29T21:29:58.433Z,79.50
2019-04-29T21:32:30.542Z,79.60
2019-04-29T21:35:20.743Z,79.80
2019-04-29T21:38:09.278Z,79.90
2019-04-29T21:40:46.553Z,80.00
2019-04-29T21:43:20.227Z,79.90
2019-04-29T21:45:49.775Z,79.90
2019-04-29T21:48:19.096Z,79.80
2019-04-29T21:50:48.702Z,79.80
2019-04-29T21:53:18.044Z,80.00
2019-04-29T21:55:47.620Z,80.10
2019-04-29T21:58:17.158Z,79.90
2019-04-29T22:00:46.826Z,80.20
2019-04-29T22:03:19.760Z,80.20
2019-04-29T22:05:49.214Z,80.40
2019-04-29T22:08:20.769Z,80.60
2019-04-29T22:10:49.947Z,80.30
2019-04-29T22:13:19.235Z,79.80
2019-04-29T22:15:48.807Z,79.70
2019-04-29T22:18:18.359Z,79.70
2019-04-29T22:20:48.183Z,79.30
2019-04-29T22:23:17.590Z,79.20
2019-04-29T22:25:48.275Z,78.70
2019-04-29T22:28:19.666Z,78.00
2019-04-29T22:30:49.766Z,78.50
2019-04-29T22:33:20.109Z,78.50
2019-04-29T22:35:49.456Z,78.60
2019-04-29T22:38:18.963Z,78.60
2019-04-29T22:40:49.925Z,78.70
2019-04-29T22:43:25.438Z,78.90
2019-04-29T22:45:55.102Z,79.00
2019-04-29T22:48:25.059Z,79.00
2019-04-29T22:50:55.593Z,79.00
2019-04-29T22:53:25.254Z,79.00
2019-04-29T22:55:56.391Z,78.80
2019-04-29T22:58:25.578Z,79.00
2019-04-29T23:00:54.905Z,79.30
2019-04-29T23:03:24.461Z,79.20
2019-04-29T23:05:55.949Z,79.40
2019-04-29T23:08:29.673Z,79.30
2019-04-29T23:10:59.790Z,79.40
2019-04-29T23:13:31.119Z,79.60
2019-04-29T23:16:02.147Z,79.50
2019-04-29T23:18:40.963Z,79.50
2019-04-29T23:21:29.484Z,79.70
2019-04-29T23:24:30.267Z,79.80
2019-04-29T23:26:59.636Z,80.30
2019-04-29T23:29:29.547Z,80.60
2019-04-29T23:31:59.797Z,80.80
2019-04-29T23:34:30.345Z,81.00
2019-04-29T23:37:00.130Z,81.20
2019-04-29T23:39:29.472Z,81.00
2019-04-29T23:41:58.776Z,81.00
2019-04-29T23:44:28.451Z,81.00
2019-04-29T23:46:57.843Z,81.10
2019-04-29T23:49:27.151Z,80.90
2019-04-29T23:51:56.437Z,80.90
2019-04-29T23:54:26.249Z,80.90
2019-04-29T23:57:23.689Z,81.10
